createdAt,value
2022-11-03T00:02:29.006Z,5.62
2022-11-03T00:04:57.315Z,5.63
2022-11-03T00:07:24.239Z,5.64
2022-11-03T00:09:53.255Z,5.70
2022-11-03T00:12:20.377Z,5.70
2022-11-03T00:14:47.312Z,5.68
2022-11-03T00:17:14.308Z,5.74
2022-11-03T00:19:45.448Z,5.68
2022-11-03T00:22:13.414Z,5.82
2022-11-03T00:24:41.275Z,5.99
2022-11-03T00:27:09.221Z,6.04
2022-11-03T00:29:50.188Z,6.06
2022-11-03T00:32:18.238Z,6.04
2022-11-03T00:34:45.371Z,5.70
2022-11-03T00:37:26.740Z,5.63
2022-11-03T00:40:01.068Z,5.42
2022-11-03T00:42:43.798Z,5.51
2022-11-03T00:45:12.839Z,5.35
2022-11-03T00:48:01.988Z,5.48
2022-11-03T00:50:50.755Z,5.63
2022-11-03T00:53:18.794Z,5.64
2022-11-03T00:55:50.664Z,5.80
2022-11-03T00:58:33.343Z,5.69
2022-11-03T01:01:03.879Z,5.63
2022-11-03T01:03:32.494Z,5.58
2022-11-03T01:06:19.220Z,5.67
2022-11-03T01:08:46.497Z,5.64
2022-11-03T01:11:43.018Z,5.47
2022-11-03T01:14:16.147Z,5.37
2022-11-03T01:16:44.448Z,5.32
2022-11-03T01:19:14.474Z,5.08
2022-11-03T01:21:41.593Z,5.04
2022-11-03T01:24:22.999Z,4.99
2022-11-03T01:26:50.414Z,4.92
2022-11-03T01:29:19.008Z,5.00
2022-11-03T01:31:51.125Z,5.02
2022-11-03T01:34:21.474Z,4.88
2022-11-03T01:36:49.891Z,4.72
2022-11-03T01:39:19.984Z,4.58
2022-11-03T01:41:52.933Z,4.39
2022-11-03T01:44:43.101Z,4.39
2022-11-03T01:47:20.543Z,4.62
2022-11-03T01:49:50.495Z,4.63
2022-11-03T01:52:37.963Z,4.85
2022-11-03T01:55:09.521Z,4.90
2022-11-03T01:57:48.004Z,4.77
2022-11-03T02:00:16.422Z,4.71
2022-11-03T02:02:45.918Z,4.74
2022-11-03T02:05:47.669Z,4.79
2022-11-03T02:08:23.206Z,4.77
2022-11-03T02:10:52.138Z,4.56
2022-11-03T02:13:24.100Z,4.66
2022-11-03T02:15:58.349Z,4.88
2022-11-03T02:18:31.887Z,4.68
2022-11-03T02:21:18.974Z,4.81
2022-11-03T02:24:17.255Z,4.81
2022-11-03T02:26:49.192Z,4.79
2022-11-03T02:29:18.213Z,4.68
2022-11-03T02:31:57.468Z,4.76
2022-11-03T02:34:37.330Z,4.65
2022-11-03T02:37:14.518Z,4.58
2022-11-03T02:39:54.870Z,4.37
2022-11-03T02:42:24.791Z,4.29
2022-11-03T02:44:55.037Z,4.21
2022-11-03T02:47:33.059Z,4.17
2022-11-03T02:50:04.902Z,4.31
2022-11-03T02:52:38.570Z,4.43
2022-11-03T02:55:27.066Z,4.47
2022-11-03T02:58:03.468Z,4.61
2022-11-03T03:00:46.276Z,4.64
2022-11-03T03:03:37.490Z,4.46
2022-11-03T03:06:09.948Z,4.29
2022-11-03T03:08:44.075Z,4.14
2022-11-03T03:11:13.615Z,3.93
2022-11-03T03:13:44.958Z,3.92
2022-11-03T03:16:31.850Z,4.02
2022-11-03T03:19:24.313Z,3.74
2022-11-03T03:21:55.307Z,3.63
2022-11-03T03:24:51.816Z,3.70
2022-11-03T03:27:24.122Z,3.55
2022-11-03T03:30:05.413Z,3.52
2022-11-03T03:32:40.633Z,3.45
2022-11-03T03:35:10.299Z,3.64
2022-11-03T03:37:41.044Z,3.67
2022-11-03T03:40:12.515Z,3.50
2022-11-03T03:42:46.023Z,3.25
2022-11-03T03:45:15.978Z,3.31
2022-11-03T03:47:49.959Z,3.38
2022-11-03T03:50:21.728Z,3.47
2022-11-03T03:52:57.583Z,3.53
2022-11-03T03:55:41.146Z,3.51
2022-11-03T03:58:12.118Z,3.45
2022-11-03T04:00:42.059Z,3.36
2022-11-03T04:03:18.719Z,3.14
2022-11-03T04:05:46.480Z,3.11
2022-11-03T04:08:17.643Z,3.40
2022-11-03T04:11:07.124Z,3.24
2022-11-03T04:13:52.680Z,3.22
2022-11-03T04:16:40.324Z,3.32
2022-11-03T04:19:30.688Z,3.23
2022-11-03T04:22:18.589Z,3.19
2022-11-03T04:24:54.866Z,3.32
2022-11-03T04:27:33.967Z,3.26
2022-11-03T04:30:10.157Z,3.12
2022-11-03T04:32:55.213Z,2.81
2022-11-03T04:35:28.966Z,2.82
2022-11-03T04:38:01.357Z,2.72
2022-11-03T04:40:33.666Z,2.62
2022-11-03T04:43:04.893Z,2.60
2022-11-03T04:46:09.586Z,2.42
2022-11-03T04:48:38.848Z,2.57
2022-11-03T04:51:25.583Z,2.62
2022-11-03T04:54:02.305Z,2.85
2022-11-03T04:56:35.279Z,2.95
2022-11-03T04:59:10.699Z,2.80
2022-11-03T05:01:39.091Z,2.74
2022-11-03T05:04:16.861Z,2.71
2022-11-03T05:06:51.740Z,2.63
2022-11-03T05:09:27.045Z,2.61
2022-11-03T05:11:55.373Z,2.82
2022-11-03T05:14:31.394Z,2.75
2022-11-03T05:17:02.369Z,2.64
2022-11-03T05:19:42.861Z,2.64
2022-11-03T05:22:19.169Z,2.61
2022-11-03T05:25:01.260Z,2.53
2022-11-03T05:27:28.415Z,2.80
2022-11-03T05:30:05.064Z,2.96
2022-11-03T05:32:34.733Z,2.85
2022-11-03T05:35:12.095Z,2.62
2022-11-03T05:37:42.345Z,2.76
2022-11-03T05:40:24.710Z,2.81
2022-11-03T05:43:02.687Z,2.89
2022-11-03T05:45:40.225Z,2.86
2022-11-03T05:48:45.086Z,3.02
2022-11-03T05:51:53.780Z,3.05
2022-11-03T05:54:29.426Z,2.98
2022-11-03T05:56:59.109Z,2.91
2022-11-03T05:59:29.943Z,2.85
2022-11-03T06:02:22.116Z,2.96
2022-11-03T06:04:49.579Z,3.02
2022-11-03T06:07:27.090Z,3.01
2022-11-03T06:09:56.158Z,3.06
2022-11-03T06:12:25.233Z,3.08
2022-11-03T06:14:53.422Z,3.36
2022-11-03T06:17:26.523Z,3.44
2022-11-03T06:20:01.154Z,3.57
2022-11-03T06:22:40.934Z,3.78
2022-11-03T06:25:29.773Z,4.04
2022-11-03T06:28:05.010Z,4.11
2022-11-03T06:33:38.355Z,4.25
2022-11-03T06:36:17.033Z,4.27
2022-11-03T06:39:21.778Z,4.30
2022-11-03T06:41:48.738Z,4.48
2022-11-03T06:44:28.914Z,4.62
2022-11-03T06:47:00.274Z,4.72
2022-11-03T06:49:36.574Z,4.69
2022-11-03T06:52:23.117Z,4.80
2022-11-03T06:55:10.863Z,4.89
2022-11-03T06:57:46.423Z,4.91
2022-11-03T07:00:40.287Z,4.91
2022-11-03T07:03:38.146Z,4.97
2022-11-03T07:06:32.082Z,5.09
2022-11-03T07:09:05.312Z,5.11
2022-11-03T07:11:51.128Z,5.22
2022-11-03T07:14:33.414Z,5.33
2022-11-03T07:17:03.681Z,5.49
2022-11-03T07:19:43.078Z,5.60
2022-11-03T07:22:22.249Z,5.89
2022-11-03T07:24:52.334Z,5.99
2022-11-03T07:27:27.293Z,6.12
2022-11-03T07:30:00.933Z,6.28
2022-11-03T07:32:34.004Z,6.43
2022-11-03T07:35:18.940Z,6.56
2022-11-03T07:37:50.390Z,6.79
2022-11-03T07:40:28.568Z,6.98
2022-11-03T07:43:01.006Z,7.20
2022-11-03T07:45:47.877Z,7.32
2022-11-03T07:48:29.429Z,7.43
2022-11-03T07:51:31.284Z,7.56
2022-11-03T07:54:17.377Z,7.71
2022-11-03T07:56:49.378Z,7.76
2022-11-03T07:59:28.773Z,7.83
2022-11-03T08:01:57.955Z,7.95
2022-11-03T08:04:30.727Z,8.03
2022-11-03T08:06:57.819Z,8.13
2022-11-03T08:09:24.893Z,8.26
2022-11-03T08:11:54.921Z,8.33
2022-11-03T08:14:22.236Z,8.31
2022-11-03T08:16:49.611Z,8.35
2022-11-03T08:19:24.625Z,8.49
2022-11-03T08:21:53.639Z,8.61
2022-11-03T08:24:24.793Z,8.85
2022-11-03T08:26:53.982Z,8.98
2022-11-03T08:29:22.938Z,9.08
2022-11-03T08:31:49.941Z,9.11
2022-11-03T08:34:16.917Z,9.18
2022-11-03T08:36:43.795Z,9.28
2022-11-03T08:39:11.872Z,9.60
2022-11-03T08:41:44.955Z,10.38
2022-11-03T08:44:13.942Z,11.97
2022-11-03T08:46:43.069Z,12.92
2022-11-03T08:49:12.176Z,13.30
2022-11-03T08:51:44.204Z,13.96
2022-11-03T08:54:11.897Z,13.90
2022-11-03T08:56:39.886Z,14.58
2022-11-03T08:59:06.818Z,14.55
2022-11-03T09:01:36.920Z,14.45
2022-11-03T09:04:05.220Z,14.14
2022-11-03T09:06:32.300Z,14.81
2022-11-03T09:11:48.534Z,15.91
2022-11-03T09:14:21.410Z,16.35
2022-11-03T09:16:55.363Z,16.12
2022-11-03T09:19:32.460Z,16.13
2022-11-03T09:22:00.568Z,15.75
2022-11-03T09:24:27.647Z,16.13
2022-11-03T09:26:59.494Z,15.53
2022-11-03T09:29:58.596Z,16.44
2022-11-03T09:32:23.811Z,16.25
2022-11-03T09:34:51.108Z,16.55
2022-11-03T09:37:20.773Z,16.09
2022-11-03T09:39:49.479Z,17.16
2022-11-03T09:42:17.753Z,17.71
2022-11-03T09:44:49.336Z,17.94
2022-11-03T09:47:41.915Z,18.27
2022-11-03T09:50:15.646Z,18.50
2022-11-03T09:52:46.110Z,17.10
2022-11-03T09:55:23.578Z,17.83
2022-11-03T09:57:53.225Z,17.56
2022-11-03T10:00:32.214Z,18.52
2022-11-03T10:03:00.377Z,18.20
2022-11-03T10:05:28.558Z,19.04
2022-11-03T10:08:04.512Z,19.41
2022-11-03T10:10:32.758Z,19.38
2022-11-03T10:13:09.729Z,17.90
2022-11-03T10:15:36.894Z,17.36
2022-11-03T10:18:03.973Z,17.71
2022-11-03T10:20:34.027Z,17.27
2022-11-03T10:23:01.556Z,17.52
2022-11-03T10:26:08.339Z,17.29
2022-11-03T10:28:36.444Z,16.90
2022-11-03T10:31:12.724Z,17.11
2022-11-03T10:33:52.327Z,16.42
2022-11-03T10:36:23.276Z,16.58
2022-11-03T10:38:50.266Z,18.19
2022-11-03T10:41:32.564Z,17.50
2022-11-03T10:44:11.812Z,15.92
2022-11-03T10:46:59.949Z,15.07
2022-11-03T10:49:39.189Z,14.63
2022-11-03T10:52:31.174Z,14.74
2022-11-03T10:54:59.742Z,15.46
2022-11-03T10:57:27.872Z,16.02
2022-11-03T10:59:55.883Z,16.48
2022-11-03T11:02:32.107Z,16.83
2022-11-03T11:05:03.666Z,17.11
2022-11-03T11:07:40.693Z,17.33
2022-11-03T11:10:21.080Z,18.21
2022-11-03T11:13:07.156Z,16.85
2022-11-03T11:15:52.071Z,16.62
2022-11-03T11:18:31.068Z,15.98
2022-11-03T11:21:18.165Z,15.64
2022-11-03T11:23:53.146Z,15.96
2022-11-03T11:26:26.239Z,16.71
2022-11-03T11:29:11.459Z,17.24
2022-11-03T11:31:43.236Z,18.20
2022-11-03T11:34:19.970Z,18.90
2022-11-03T11:37:11.201Z,18.74
2022-11-03T11:39:44.451Z,18.76
2022-11-03T11:42:19.845Z,19.05
2022-11-03T11:45:07.279Z,19.96
2022-11-03T11:47:49.642Z,19.04
2022-11-03T11:50:26.385Z,18.51
2022-11-03T11:53:12.786Z,18.31
2022-11-03T11:55:59.321Z,18.80
2022-11-03T11:58:47.985Z,18.10
2022-11-03T12:01:35.383Z,18.31
2022-11-03T12:04:08.381Z,18.99
2022-11-03T12:06:41.852Z,17.66
2022-11-03T12:09:22.248Z,18.37
2022-11-03T12:11:56.509Z,19.10
2022-11-03T12:14:34.571Z,18.41
2022-11-03T12:17:16.670Z,18.87
2022-11-03T12:19:54.389Z,18.89
2022-11-03T12:22:32.214Z,19.78
2022-11-03T12:25:08.693Z,19.75
2022-11-03T12:27:54.237Z,19.77
2022-11-03T12:30:23.196Z,19.88
2022-11-03T12:32:52.329Z,19.90
2022-11-03T12:35:21.416Z,20.62
2022-11-03T12:37:48.585Z,20.42
2022-11-03T12:40:16.639Z,20.61
2022-11-03T12:42:52.947Z,20.65
2022-11-03T12:45:27.975Z,20.43
2022-11-03T12:47:56.366Z,19.99
2022-11-03T12:50:26.727Z,20.24
2022-11-03T12:52:55.689Z,20.01
2022-11-03T12:58:02.390Z,19.76
2022-11-03T13:00:31.607Z,19.29
2022-11-03T13:03:23.302Z,19.08
2022-11-03T13:05:50.218Z,19.51
2022-11-03T13:08:23.235Z,19.63
2022-11-03T13:11:23.218Z,19.92
2022-11-03T13:13:53.334Z,20.16
2022-11-03T13:16:20.418Z,20.14
2022-11-03T13:18:49.010Z,19.56
2022-11-03T13:21:42.766Z,17.97
2022-11-03T13:24:09.782Z,17.86
2022-11-03T13:26:39.748Z,17.36
2022-11-03T13:29:06.921Z,16.80
2022-11-03T13:31:36.029Z,16.59
2022-11-03T13:34:08.080Z,16.53
2022-11-03T13:36:36.180Z,16.41
2022-11-03T13:39:04.397Z,16.24
2022-11-03T13:41:34.447Z,16.38
2022-11-03T13:44:01.449Z,16.43
2022-11-03T13:46:35.780Z,16.55
2022-11-03T13:51:50.433Z,16.68
2022-11-03T13:59:52.217Z,17.97
2022-11-03T14:05:17.466Z,18.65
2022-11-03T14:07:47.773Z,18.37
2022-11-03T14:10:14.788Z,17.73
2022-11-03T14:12:41.959Z,17.80
2022-11-03T14:15:12.358Z,17.80
2022-11-03T14:17:40.815Z,17.51
2022-11-03T14:20:13.909Z,17.02
2022-11-03T14:22:42.077Z,16.67
2022-11-03T14:25:10.432Z,16.29
2022-11-03T14:27:44.538Z,16.04
2022-11-03T14:30:17.861Z,15.94
2022-11-03T14:32:44.948Z,16.04
2022-11-03T14:35:15.209Z,16.01
2022-11-03T14:37:44.885Z,15.95
2022-11-03T14:40:33.930Z,16.08
2022-11-03T14:43:02.144Z,16.11
2022-11-03T14:45:30.165Z,15.72
2022-11-03T14:47:57.297Z,15.59
2022-11-03T14:50:25.473Z,15.45
2022-11-03T14:52:54.908Z,15.33
2022-11-03T14:55:25.328Z,15.19
2022-11-03T14:57:53.418Z,15.33
2022-11-03T15:00:20.640Z,15.67
2022-11-03T15:02:49.570Z,15.78
2022-11-03T15:05:34.958Z,15.77
2022-11-03T15:08:02.068Z,15.60
2022-11-03T15:10:34.025Z,15.44
2022-11-03T15:13:01.103Z,15.19
2022-11-03T15:15:29.268Z,15.00
2022-11-03T15:18:01.628Z,14.84
2022-11-03T15:20:31.858Z,14.68
2022-11-03T15:25:46.398Z,14.38
2022-11-03T15:28:18.617Z,14.27
2022-11-03T15:30:45.544Z,14.00
2022-11-03T15:36:07.588Z,13.69
2022-11-03T15:38:45.907Z,13.52
2022-11-03T15:41:15.946Z,13.39
2022-11-03T15:43:50.736Z,13.30
2022-11-03T15:46:21.905Z,13.26
2022-11-03T15:48:53.985Z,13.12
2022-11-03T15:51:26.281Z,12.96
2022-11-03T15:53:58.446Z,12.97
2022-11-03T15:56:27.496Z,12.90
2022-11-03T15:58:56.442Z,12.87
2022-11-03T16:01:26.299Z,12.83
2022-11-03T16:04:00.277Z,12.88
2022-11-03T16:06:53.700Z,12.94
2022-11-03T16:09:17.858Z,12.87
2022-11-03T16:11:48.087Z,12.93
2022-11-03T16:14:17.184Z,12.94
2022-11-03T16:16:50.723Z,12.96
2022-11-03T16:19:19.941Z,12.97
2022-11-03T16:21:52.103Z,12.95
2022-11-03T16:24:19.577Z,13.02
2022-11-03T16:26:53.371Z,12.99
2022-11-03T16:29:23.677Z,13.04
2022-11-03T16:31:58.122Z,13.01
2022-11-03T16:34:31.851Z,13.09
2022-11-03T16:37:05.776Z,13.11
2022-11-03T16:39:41.765Z,13.07
2022-11-03T16:42:16.296Z,12.97
2022-11-03T16:44:43.544Z,12.95
2022-11-03T16:47:12.718Z,13.01
2022-11-03T16:49:43.909Z,13.05
2022-11-03T16:52:11.146Z,12.99
2022-11-03T16:54:39.604Z,13.06
2022-11-03T16:57:37.472Z,13.05
2022-11-03T17:00:06.594Z,12.95
2022-11-03T17:02:34.959Z,12.96
2022-11-03T17:05:01.991Z,12.90
2022-11-03T17:07:31.513Z,12.87
2022-11-03T17:10:00.583Z,12.82
2022-11-03T17:12:39.456Z,12.85
2022-11-03T17:15:08.255Z,12.83
2022-11-03T17:17:36.187Z,12.72
2022-11-03T17:20:05.748Z,12.76
2022-11-03T17:22:33.761Z,12.85
2022-11-03T17:25:16.159Z,12.86
2022-11-03T17:27:52.424Z,12.94
2022-11-03T17:30:22.766Z,12.87
2022-11-03T17:32:54.249Z,12.90
2022-11-03T17:35:38.727Z,12.90
2022-11-03T17:38:16.333Z,12.82
2022-11-03T17:40:54.924Z,12.78
2022-11-03T17:43:53.608Z,12.85
2022-11-03T17:46:26.917Z,12.85
2022-11-03T17:48:57.308Z,12.82
2022-11-03T17:51:24.524Z,12.77
2022-11-03T17:54:06.669Z,12.73
2022-11-03T17:56:34.695Z,12.71
2022-11-03T17:59:03.982Z,12.73
2022-11-03T18:01:33.881Z,12.68
2022-11-03T18:06:53.371Z,12.51
2022-11-03T18:09:25.454Z,12.42
2022-11-03T18:12:11.672Z,12.46
2022-11-03T18:14:40.795Z,12.26
2022-11-03T18:17:17.209Z,12.27
2022-11-03T18:19:49.031Z,12.18
2022-11-03T18:22:20.622Z,12.06
2022-11-03T18:24:53.854Z,12.06
2022-11-03T18:27:25.463Z,12.14
2022-11-03T18:29:53.176Z,12.17
2022-11-03T18:32:21.384Z,12.12
2022-11-03T18:34:48.466Z,12.03
2022-11-03T18:37:16.032Z,12.05
2022-11-03T18:39:43.610Z,12.00
2022-11-03T18:42:16.939Z,12.02
2022-11-03T18:44:50.161Z,11.97
2022-11-03T18:47:20.959Z,11.93
2022-11-03T18:49:49.502Z,11.84
2022-11-03T18:52:24.152Z,11.80
2022-11-03T18:54:53.690Z,11.74
2022-11-03T18:57:33.999Z,11.80
2022-11-03T19:00:05.720Z,11.81
2022-11-03T19:02:41.757Z,11.84
2022-11-03T19:05:32.290Z,11.80
2022-11-03T19:08:03.332Z,11.78
2022-11-03T19:10:46.170Z,11.79
2022-11-03T19:13:24.721Z,11.72
2022-11-03T19:15:57.516Z,11.70
2022-11-03T19:18:28.702Z,11.65
2022-11-03T19:21:40.407Z,11.63
2022-11-03T19:24:16.039Z,11.54
2022-11-03T19:27:03.253Z,11.49
2022-11-03T19:29:38.908Z,11.46
2022-11-03T19:32:17.276Z,11.35
2022-11-03T19:34:46.609Z,11.42
2022-11-03T19:37:35.368Z,11.37
2022-11-03T19:40:09.987Z,11.29
2022-11-03T19:42:45.708Z,11.26
2022-11-03T19:45:42.750Z,11.17
2022-11-03T19:48:24.279Z,11.17
2022-11-03T19:51:06.616Z,11.16
2022-11-03T19:53:37.783Z,11.12
2022-11-03T19:56:12.474Z,11.02
2022-11-03T19:58:41.111Z,11.03
2022-11-03T20:01:10.107Z,10.99
2022-11-03T20:03:52.880Z,11.05
2022-11-03T20:06:21.794Z,11.02
2022-11-03T20:09:09.232Z,11.03
2022-11-03T20:11:38.738Z,11.07
2022-11-03T20:14:07.864Z,11.02
2022-11-03T20:16:37.097Z,11.03
2022-11-03T20:19:04.608Z,11.05
2022-11-03T20:21:34.588Z,11.03
2022-11-03T20:24:15.710Z,11.02
2022-11-03T20:26:43.779Z,11.05
2022-11-03T20:29:16.215Z,11.01
2022-11-03T20:31:46.154Z,10.97
2022-11-03T20:34:33.710Z,10.97
2022-11-03T20:37:05.797Z,10.95
2022-11-03T20:39:33.531Z,11.00
2022-11-03T20:42:08.885Z,10.92
2022-11-03T20:44:44.034Z,10.90
2022-11-03T20:47:44.463Z,10.96
2022-11-03T20:50:27.262Z,10.97
2022-11-03T20:53:03.474Z,10.92
2022-11-03T20:55:43.466Z,10.98
2022-11-03T20:58:18.229Z,10.97
2022-11-03T21:00:48.947Z,10.98
2022-11-03T21:03:58.696Z,11.00
2022-11-03T21:06:33.655Z,11.00
2022-11-03T21:09:44.374Z,11.02
2022-11-03T21:12:14.655Z,11.02
2022-11-03T21:15:20.015Z,11.00
2022-11-03T21:18:08.879Z,11.04
2022-11-03T21:20:37.533Z,11.02
2022-11-03T21:23:28.860Z,10.98
2022-11-03T21:26:01.248Z,11.03
2022-11-03T21:28:35.738Z,11.08
2022-11-03T21:31:11.490Z,11.11
2022-11-03T21:33:59.303Z,11.16
2022-11-03T21:36:28.518Z,11.14
2022-11-03T21:39:12.367Z,11.19
2022-11-03T21:42:03.494Z,11.20
2022-11-03T21:44:37.006Z,11.22
2022-11-03T21:47:08.074Z,11.22
2022-11-03T21:49:47.358Z,11.29
2022-11-03T21:52:34.055Z,11.34
2022-11-03T21:55:10.078Z,11.36
2022-11-03T21:57:47.271Z,11.37
2022-11-03T22:01:09.327Z,11.41
2022-11-03T22:03:51.530Z,11.43
2022-11-03T22:06:35.905Z,11.47
2022-11-03T22:09:10.577Z,11.50
2022-11-03T22:11:38.448Z,11.47
2022-11-03T22:14:50.639Z,11.50
2022-11-03T22:17:24.348Z,11.43
2022-11-03T22:20:16.930Z,11.44
2022-11-03T22:23:09.535Z,11.40
2022-11-03T22:25:57.185Z,11.46
2022-11-03T22:28:25.398Z,11.40
2022-11-03T22:31:11.779Z,11.44
2022-11-03T22:33:58.824Z,11.51
2022-11-03T22:36:26.049Z,11.54
2022-11-03T22:39:11.650Z,11.61
2022-11-03T22:41:59.626Z,11.64
2022-11-03T22:44:49.128Z,11.70
2022-11-03T22:47:18.787Z,11.73
2022-11-03T22:49:47.257Z,11.70
2022-11-03T22:52:15.444Z,11.73
2022-11-03T22:54:49.338Z,11.71
2022-11-03T22:57:16.335Z,11.68
2022-11-03T22:59:45.626Z,11.65
2022-11-03T23:02:16.855Z,11.64
2022-11-03T23:04:46.965Z,11.58
2022-11-03T23:07:14.165Z,11.61
2022-11-03T23:09:45.749Z,11.61
2022-11-03T23:12:15.874Z,11.66
2022-11-03T23:15:02.458Z,11.66
2022-11-03T23:17:49.432Z,11.69
2022-11-03T23:20:35.855Z,11.67
2022-11-03T23:23:02.920Z,11.62
2022-11-03T23:25:32.279Z,11.66
2022-11-03T23:28:05.579Z,11.71
2022-11-03T23:30:33.689Z,11.68
2022-11-03T23:33:01.584Z,11.71
2022-11-03T23:35:29.559Z,11.69
2022-11-03T23:37:56.479Z,11.67
2022-11-03T23:40:27.426Z,11.73
2022-11-03T23:42:57.465Z,11.75
2022-11-03T23:45:44.237Z,11.73
2022-11-03T23:48:29.897Z,11.67
2022-11-03T23:51:02.796Z,11.67
2022-11-03T23:53:34.782Z,11.70
2022-11-03T23:56:20.103Z,11.66
2022-11-03T23:59:00.788Z,11.67
